createdAt,value
2019-02-09T00:02:38.642Z,0.20
2019-02-09T00:08:40.856Z,0.10
2019-02-09T00:14:42.993Z,0.00
2019-02-09T00:20:45.219Z,0.10
2019-02-09T00:26:47.410Z,0.20
2019-02-09T00:32:49.560Z,0.40
2019-02-09T00:38:52.772Z,0.40
2019-02-09T00:44:54.916Z,0.40
2019-02-09T00:50:57.041Z,0.40
2019-02-09T00:56:59.389Z,0.40
2019-02-09T01:03:01.511Z,0.40
2019-02-09T01:09:09.528Z,0.40
2019-02-09T01:15:13.236Z,0.40
2019-02-09T01:21:15.423Z,0.40
2019-02-09T01:27:20.864Z,0.40
2019-02-09T01:33:23.063Z,0.50
2019-02-09T01:39:25.271Z,0.50
2019-02-09T01:45:28.411Z,0.60
2019-02-09T01:51:30.775Z,0.60
2019-02-09T01:57:32.950Z,0.50
2019-02-09T02:03:35.228Z,0.50
2019-02-09T02:09:37.403Z,0.40
2019-02-09T02:15:39.782Z,0.40
2019-02-09T02:21:42.039Z,0.30
2019-02-09T02:27:44.243Z,0.30
2019-02-09T02:33:46.373Z,0.20
2019-02-09T02:39:48.756Z,0.10
2019-02-09T02:45:51.116Z,0.00
2019-02-09T02:51:53.230Z,-0.10
2019-02-09T02:57:55.480Z,-0.10
2019-02-09T03:03:57.705Z,-0.20
2019-02-09T03:10:00.019Z,-0.30
2019-02-09T03:16:02.296Z,-0.30
2019-02-09T03:22:04.416Z,-0.30
2019-02-09T03:28:06.653Z,-0.30
2019-02-09T03:34:08.811Z,-0.20
2019-02-09T03:40:13.303Z,-0.10
2019-02-09T03:46:15.445Z,-0.10
2019-02-09T03:52:18.678Z,-0.10
2019-02-09T03:58:20.815Z,-0.10
2019-02-09T04:04:22.935Z,-0.10
2019-02-09T04:10:25.232Z,-0.10
2019-02-09T04:16:27.516Z,-0.10
2019-02-09T04:22:29.747Z,-0.10
2019-02-09T04:28:31.926Z,-0.10
2019-02-09T04:34:34.034Z,0.00
2019-02-09T04:40:36.209Z,-0.10
2019-02-09T04:46:38.309Z,-0.10
2019-02-09T04:52:40.453Z,-0.10
2019-02-09T04:58:42.647Z,-0.20
2019-02-09T05:04:44.780Z,-0.20
2019-02-09T05:10:46.931Z,-0.30
2019-02-09T05:17:08.612Z,-0.40
2019-02-09T05:23:10.775Z,-0.50
2019-02-09T05:29:13.019Z,-0.60
2019-02-09T05:35:15.282Z,-0.70
2019-02-09T05:41:17.423Z,-0.80
2019-02-09T05:47:19.647Z,-0.90
2019-02-09T05:53:21.797Z,-0.90
2019-02-09T05:59:24.028Z,-1.00
2019-02-09T06:05:26.186Z,-1.10
2019-02-09T06:11:28.515Z,-1.10
2019-02-09T06:17:30.663Z,-1.20
2019-02-09T06:23:33.056Z,-1.20
2019-02-09T06:29:35.288Z,-1.10
2019-02-09T06:35:37.495Z,-1.10
2019-02-09T06:41:39.820Z,-1.00
2019-02-09T06:47:42.135Z,-0.90
2019-02-09T06:53:44.340Z,-0.70
2019-02-09T06:59:46.671Z,-0.50
2019-02-09T07:05:49.207Z,-0.40
2019-02-09T07:11:51.436Z,-0.20
2019-02-09T07:17:53.591Z,-0.10
2019-02-09T07:23:55.889Z,0.10
2019-02-09T07:29:58.365Z,0.30
2019-02-09T07:36:00.592Z,0.50
2019-02-09T07:42:03.242Z,0.80
2019-02-09T07:48:05.715Z,1.30
2019-02-09T07:54:09.182Z,1.60
2019-02-09T08:00:19.934Z,2.20
2019-02-09T08:06:22.311Z,2.50
2019-02-09T08:12:24.669Z,2.80
2019-02-09T08:18:26.894Z,3.20
2019-02-09T08:24:30.375Z,3.80
2019-02-09T08:30:35.517Z,4.10
2019-02-09T08:36:39.783Z,4.70
2019-02-09T08:42:41.933Z,5.70
2019-02-09T08:48:44.085Z,5.60
2019-02-09T08:54:46.705Z,5.00
2019-02-09T09:00:49.226Z,4.20
2019-02-09T09:06:51.492Z,3.80
2019-02-09T09:12:53.766Z,3.90
2019-02-09T09:18:56.007Z,4.20
2019-02-09T09:24:58.412Z,4.20
2019-02-09T09:31:01.849Z,4.20
2019-02-09T09:37:04.249Z,4.30
2019-02-09T09:43:06.675Z,4.70
2019-02-09T09:49:09.594Z,5.40
2019-02-09T09:55:12.835Z,6.10
2019-02-09T10:01:16.042Z,6.80
2019-02-09T10:07:19.231Z,7.20
2019-02-09T10:13:21.475Z,6.30
2019-02-09T10:19:23.718Z,6.00
2019-02-09T10:25:25.987Z,6.00
2019-02-09T10:31:29.535Z,6.10
2019-02-09T10:37:33.886Z,5.80
2019-02-09T10:43:37.143Z,6.20
2019-02-09T10:49:40.654Z,7.00
2019-02-09T10:55:42.808Z,7.20
2019-02-09T11:01:44.957Z,8.00
2019-02-09T11:07:47.256Z,8.50
2019-02-09T11:13:49.791Z,8.60
2019-02-09T11:19:52.099Z,8.20
2019-02-09T11:25:54.353Z,7.70
2019-02-09T11:31:56.768Z,7.30
2019-02-09T11:38:01.107Z,7.70
2019-02-09T11:44:03.451Z,7.30
2019-02-09T11:50:11.139Z,7.30
2019-02-09T11:56:15.637Z,7.20
2019-02-09T12:02:19.077Z,7.10
2019-02-09T12:08:23.404Z,7.70
2019-02-09T12:14:27.685Z,8.10
2019-02-09T12:20:29.862Z,8.10
2019-02-09T12:26:32.275Z,8.20
2019-02-09T12:32:39.837Z,7.80
2019-02-09T12:38:42.131Z,7.30
2019-02-09T12:44:44.377Z,7.10
2019-02-09T12:50:47.724Z,7.00
2019-02-09T12:56:51.177Z,7.40
2019-02-09T13:02:54.065Z,7.80
2019-02-09T13:08:56.400Z,8.00
2019-02-09T13:14:58.686Z,8.30
2019-02-09T13:21:00.864Z,8.50
2019-02-09T13:27:03.198Z,8.50
2019-02-09T13:33:06.887Z,8.50
2019-02-09T13:39:11.164Z,8.80
2019-02-09T13:45:20.446Z,9.00
2019-02-09T13:51:22.810Z,8.90
2019-02-09T13:57:25.159Z,8.40
2019-02-09T14:03:27.427Z,8.30
2019-02-09T14:09:32.308Z,8.20
2019-02-09T14:15:34.638Z,7.80
2019-02-09T14:21:36.808Z,7.70
2019-02-09T14:27:39.155Z,7.70
2019-02-09T14:33:41.587Z,7.70
2019-02-09T14:39:45.861Z,7.90
2019-02-09T14:45:48.240Z,7.80
2019-02-09T14:51:50.593Z,7.80
2019-02-09T14:57:55.801Z,7.70
2019-02-09T15:04:02.801Z,7.50
2019-02-09T15:10:04.429Z,7.30
2019-02-09T15:16:31.906Z,7.30
2019-02-09T15:22:36.256Z,7.40
2019-02-09T15:28:40.015Z,7.20
2019-02-09T15:34:46.397Z,7.10
2019-02-09T15:40:54.687Z,6.90
2019-02-09T15:46:56.915Z,6.60
2019-02-09T15:53:01.616Z,6.30
2019-02-09T15:59:04.291Z,6.10
2019-02-09T16:05:07.735Z,6.00
2019-02-09T16:11:10.795Z,5.80
2019-02-09T16:17:13.184Z,5.50
2019-02-09T16:23:16.640Z,5.40
2019-02-09T16:29:19.179Z,5.10
2019-02-09T16:35:23.179Z,4.90
2019-02-09T16:41:25.724Z,4.60
2019-02-09T16:47:27.979Z,4.60
2019-02-09T16:53:30.392Z,4.70
2019-02-09T16:59:32.728Z,4.60
2019-02-09T17:05:34.918Z,4.50
2019-02-09T17:11:39.226Z,4.30
2019-02-09T17:17:41.604Z,4.20
2019-02-09T17:23:43.782Z,4.20
2019-02-09T17:29:46.094Z,4.10
2019-02-09T17:35:49.984Z,4.00
2019-02-09T17:41:54.043Z,3.80
2019-02-09T17:47:56.711Z,3.80
2019-02-09T17:53:58.937Z,3.80
2019-02-09T18:00:01.415Z,3.70
2019-02-09T18:06:03.877Z,3.80
2019-02-09T18:12:06.129Z,3.80
2019-02-09T18:18:08.575Z,3.80
2019-02-09T18:24:10.997Z,3.70
2019-02-09T18:30:15.825Z,3.70
2019-02-09T18:36:18.467Z,3.50
2019-02-09T18:42:20.804Z,3.40
2019-02-09T18:48:23.277Z,3.40
2019-02-09T18:54:25.480Z,3.40
2019-02-09T19:00:29.513Z,3.20
2019-02-09T19:06:32.166Z,3.20
2019-02-09T19:12:34.580Z,3.10
2019-02-09T19:18:37.060Z,3.00
2019-02-09T19:24:39.436Z,3.00
2019-02-09T19:30:41.821Z,3.00
2019-02-09T19:36:46.531Z,2.90
2019-02-09T19:42:50.945Z,2.90
2019-02-09T19:48:53.248Z,2.80
2019-02-09T19:54:55.490Z,2.70
2019-02-09T20:00:57.835Z,2.70
2019-02-09T20:07:00.288Z,2.60
2019-02-09T20:13:02.787Z,2.50
2019-02-09T20:19:05.156Z,2.50
2019-02-09T20:25:10.519Z,2.50
2019-02-09T20:31:12.944Z,2.70
2019-02-09T20:37:16.433Z,2.80
2019-02-09T20:43:19.241Z,2.80
2019-02-09T20:49:21.447Z,2.70
2019-02-09T20:55:23.863Z,2.50
2019-02-09T21:01:26.448Z,2.50
2019-02-09T21:07:29.992Z,2.40
2019-02-09T21:13:32.367Z,2.20
2019-02-09T21:19:34.755Z,2.10
2019-02-09T21:25:38.906Z,1.90
2019-02-09T21:31:41.260Z,1.80
2019-02-09T21:37:45.497Z,1.80
2019-02-09T21:43:47.736Z,1.70
2019-02-09T21:49:52.087Z,1.80
2019-02-09T21:55:54.369Z,1.90
2019-02-09T22:01:56.618Z,1.70
2019-02-09T22:07:58.820Z,1.60
2019-02-09T22:14:01.126Z,1.50
2019-02-09T22:20:06.801Z,1.50
2019-02-09T22:26:13.218Z,1.40
2019-02-09T22:32:13.100Z,1.30
2019-02-09T22:38:17.111Z,1.30
2019-02-09T22:44:19.352Z,1.40
2019-02-09T22:50:24.056Z,1.50
2019-02-09T22:56:26.262Z,1.60
2019-02-09T23:02:28.450Z,2.00
2019-02-09T23:08:30.628Z,2.00
2019-02-09T23:14:32.787Z,2.00
2019-02-09T23:20:35.095Z,1.90
2019-02-09T23:26:37.275Z,1.80
2019-02-09T23:32:39.571Z,1.80
2019-02-09T23:38:41.794Z,1.70
2019-02-09T23:44:45.635Z,1.80
2019-02-09T23:50:48.006Z,1.70
2019-02-09T23:56:50.180Z,1.60
